Game Details

[ Leader Board ] [ Players ] [ Opponents ] [ Guilds ] [ Areas ]

Game Details for: Guytou

Game Progress

Quest Completed on Day
Mountain Pass 44
Chaak Mine 39
Arena 1 24
Dave and Heidi 12
Mushroom Stew 5

Full Telemetry

Time Game Day Game Hour Game Minute Type Details Value Extra Zone X Y Credits Guild
10/9/2020 8:15:46 PM 1 8 4 Equip Leather Cap 45 InsectBasement 13 16 0 None
10/9/2020 8:15:44 PM 1 8 4 Equip Knife 56 InsectBasement 13 16 0 None
5/11/2020 8:24:29 PM 45 18 42 Arena Win 2 Village4 18 7 1131 Mercenary
5/11/2020 8:20:14 PM 45 17 27 Arena Win 1 Village4 18 7 1987 Mercenary
5/11/2020 8:14:51 PM 45 0 0 Daily Peter 3210 Wilderness2 16 5 1726 Mercenary
5/11/2020 8:10:41 PM 44 11 3 Equip Exquisite Heavy Leather Cap 365 Village4 27 10 1270 Mercenary
5/11/2020 8:10:20 PM 44 11 3 Equip Exquisite Kinetic Field 345 Village4 27 10 1270 Mercenary
5/11/2020 8:07:14 PM 44 2 36 Quest Mountain Pass 0 Wilderness2 37 6 2246 Mercenary
5/11/2020 7:58:22 PM 44 0 0 Daily Peter 3072 Wilderness1 10 12 1837 Mercenary
5/11/2020 7:31:59 PM 43 0 0 Daily Peter 3072 Wilderness1 3 8 1712 Mercenary
5/3/2020 1:19:14 PM 1 8 0 Equip Knife 56 InsectBasement 10 13 0 None
5/3/2020 1:19:13 PM 1 8 0 Equip Leather Cap 45 InsectBasement 10 13 0 None
4/7/2020 9:00:48 AM 2 8 30 Daily ???? 498 BuildingHouse1 2 3 0 None
4/7/2020 8:56:51 AM 1 8 9 Equip Knife 56 InsectBasement 13 17 0 None
4/7/2020 8:56:49 AM 1 8 9 Equip Leather Cap 45 InsectBasement 13 17 0 None
4/6/2020 8:52:49 PM 42 0 0 Daily Peter 3072 Wilderness1 9 15 3227 Mercenary
4/5/2020 10:13:55 PM 41 0 18 Learn Psi Bolt 0 Village2 18 8 2284 Mercenary
4/5/2020 10:13:55 PM 41 0 18 Daily Peter 3072 Village2 18 8 2284 Mercenary
4/5/2020 10:13:46 PM 40 22 18 Learn Quicken 0 Village2 18 8 2334 Mercenary
4/5/2020 10:13:34 PM 40 19 18 Train Intelligence 5 Village2 18 8 2534 Mercenary
4/5/2020 10:13:29 PM 40 15 18 Train Intelligence 4 Village2 18 8 2646 Mercenary
4/5/2020 10:13:01 PM 40 12 18 Equip Carbine 383 Village2 18 9 2723 Mercenary
4/5/2020 10:12:42 PM 40 12 18 Train Tech 5 Village2 18 8 2723 Mercenary
4/5/2020 10:09:46 PM 40 0 0 Daily Peter 2649 Wilderness1 34 28 2747 Mercenary
4/5/2020 10:05:19 PM 39 12 2 Quest Chaak Mine 0 BuildingOffice1 5 7 2439 Mercenary
4/5/2020 9:41:52 PM 39 0 0 Daily Peter 2649 Wilderness1 31 4 1268 Mercenary
4/5/2020 9:21:49 PM 39 0 0 Daily Peter 2649 Wilderness1 30 4 1268 Mercenary
4/5/2020 9:14:32 PM 38 0 0 Daily Peter 2649 Wilderness1 29 33 1434 Mercenary
4/5/2020 9:11:40 PM 37 14 8 Equip Tech Leather Armor 283 Village3 20 16 1267 Mercenary
4/5/2020 9:09:14 PM 37 3 41 Daily Peter 2558 Village3 5 14 1670 Mercenary